sensor_id;sensor_type;location;lat;lon;timestamp;P1;durP1;ratioP1;P2;durP2;ratioP2
8319;SDS011;4197;42.130;24.746;2023-09-19T00:00:44;10.65;;;5.97;;
8319;SDS011;4197;42.130;24.746;2023-09-19T00:03:14;10.77;;;5.47;;
8319;SDS011;4197;42.130;24.746;2023-09-19T00:05:43;6.68;;;5.88;;
8319;SDS011;4197;42.130;24.746;2023-09-19T00:08:13;7.40;;;5.43;;
8319;SDS011;4197;42.130;24.746;2023-09-19T00:10:41;8.13;;;5.78;;
8319;SDS011;4197;42.130;24.746;2023-09-19T00:13:12;8.75;;;5.88;;
8319;SDS011;4197;42.130;24.746;2023-09-19T00:15:43;8.32;;;5.47;;
8319;SDS011;4197;42.130;24.746;2023-09-19T00:18:16;9.60;;;5.88;;
8319;SDS011;4197;42.130;24.746;2023-09-19T00:20:46;10.23;;;4.88;;
8319;SDS011;4197;42.130;24.746;2023-09-19T00:23:16;9.30;;;6.35;;
8319;SDS011;4197;42.130;24.746;2023-09-19T00:25:46;7.95;;;5.95;;
8319;SDS011;4197;42.130;24.746;2023-09-19T00:28:16;7.75;;;5.15;;
8319;SDS011;4197;42.130;24.746;2023-09-19T00:30:46;8.52;;;5.25;;
8319;SDS011;4197;42.130;24.746;2023-09-19T00:33:17;8.68;;;5.68;;
8319;SDS011;4197;42.130;24.746;2023-09-19T00:35:49;7.55;;;5.00;;
8319;SDS011;4197;42.130;24.746;2023-09-19T00:38:17;7.65;;;5.90;;
8319;SDS011;4197;42.130;24.746;2023-09-19T00:40:48;8.90;;;5.70;;
8319;SDS011;4197;42.130;24.746;2023-09-19T00:43:19;6.60;;;5.68;;
8319;SDS011;4197;42.130;24.746;2023-09-19T00:45:48;6.53;;;4.88;;
8319;SDS011;4197;42.130;24.746;2023-09-19T00:48:19;7.88;;;5.00;;
8319;SDS011;4197;42.130;24.746;2023-09-19T00:50:48;8.18;;;5.28;;
8319;SDS011;4197;42.130;24.746;2023-09-19T00:53:18;8.40;;;5.65;;
8319;SDS011;4197;42.130;24.746;2023-09-19T00:55:50;5.85;;;5.13;;
8319;SDS011;4197;42.130;24.746;2023-09-19T00:58:20;5.95;;;5.35;;
8319;SDS011;4197;42.130;24.746;2023-09-19T01:00:49;5.85;;;4.80;;
8319;SDS011;4197;42.130;24.746;2023-09-19T01:03:19;9.15;;;5.70;;
8319;SDS011;4197;42.130;24.746;2023-09-19T01:05:49;9.75;;;5.47;;
8319;SDS011;4197;42.130;24.746;2023-09-19T01:08:17;7.63;;;5.80;;
8319;SDS011;4197;42.130;24.746;2023-09-19T01:10:47;8.00;;;6.35;;
8319;SDS011;4197;42.130;24.746;2023-09-19T01:13:25;10.77;;;6.00;;
8319;SDS011;4197;42.130;24.746;2023-09-19T01:16:03;6.45;;;5.43;;
8319;SDS011;4197;42.130;24.746;2023-09-19T01:18:40;7.60;;;5.57;;
8319;SDS011;4197;42.130;24.746;2023-09-19T01:21:15;10.85;;;5.60;;
8319;SDS011;4197;42.130;24.746;2023-09-19T01:24:00;8.77;;;5.88;;
8319;SDS011;4197;42.130;24.746;2023-09-19T01:26:48;6.82;;;5.35;;
8319;SDS011;4197;42.130;24.746;2023-09-19T01:29:44;9.43;;;5.80;;
8319;SDS011;4197;42.130;24.746;2023-09-19T01:32:15;7.72;;;5.90;;
8319;SDS011;4197;42.130;24.746;2023-09-19T01:34:49;9.68;;;6.13;;
8319;SDS011;4197;42.130;24.746;2023-09-19T01:37:20;7.05;;;5.95;;
8319;SDS011;4197;42.130;24.746;2023-09-19T01:39:53;9.90;;;7.57;;
8319;SDS011;4197;42.130;24.746;2023-09-19T01:42:28;10.40;;;7.07;;
8319;SDS011;4197;42.130;24.746;2023-09-19T01:45:06;12.10;;;6.40;;
8319;SDS011;4197;42.130;24.746;2023-09-19T01:47:42;8.80;;;6.43;;
8319;SDS011;4197;42.130;24.746;2023-09-19T01:50:17;14.77;;;8.40;;
8319;SDS011;4197;42.130;24.746;2023-09-19T01:52:57;9.52;;;7.63;;
8319;SDS011;4197;42.130;24.746;2023-09-19T01:55:32;9.48;;;6.05;;
8319;SDS011;4197;42.130;24.746;2023-09-19T01:58:06;17.05;;;8.48;;
8319;SDS011;4197;42.130;24.746;2023-09-19T02:00:41;10.07;;;7.38;;
8319;SDS011;4197;42.130;24.746;2023-09-19T02:03:13;9.45;;;6.93;;
8319;SDS011;4197;42.130;24.746;2023-09-19T02:05:47;9.98;;;6.28;;
8319;SDS011;4197;42.130;24.746;2023-09-19T02:08:18;9.35;;;6.25;;
8319;SDS011;4197;42.130;24.746;2023-09-19T02:10:47;9.20;;;6.75;;
8319;SDS011;4197;42.130;24.746;2023-09-19T02:13:16;7.32;;;5.78;;
8319;SDS011;4197;42.130;24.746;2023-09-19T02:15:45;8.88;;;5.88;;
8319;SDS011;4197;42.130;24.746;2023-09-19T02:18:15;9.35;;;6.03;;
8319;SDS011;4197;42.130;24.746;2023-09-19T02:20:45;8.68;;;6.63;;
8319;SDS011;4197;42.130;24.746;2023-09-19T02:23:14;7.00;;;5.80;;
8319;SDS011;4197;42.130;24.746;2023-09-19T02:25:51;9.85;;;6.30;;
8319;SDS011;4197;42.130;24.746;2023-09-19T02:28:20;8.30;;;5.70;;
8319;SDS011;4197;42.130;24.746;2023-09-19T02:30:49;11.73;;;6.30;;
8319;SDS011;4197;42.130;24.746;2023-09-19T02:33:18;9.63;;;6.47;;
8319;SDS011;4197;42.130;24.746;2023-09-19T02:35:47;11.50;;;6.25;;
8319;SDS011;4197;42.130;24.746;2023-09-19T02:38:15;13.80;;;6.47;;
8319;SDS011;4197;42.130;24.746;2023-09-19T02:40:47;9.77;;;7.13;;
8319;SDS011;4197;42.130;24.746;2023-09-19T02:43:15;14.00;;;7.25;;
8319;SDS011;4197;42.130;24.746;2023-09-19T02:45:44;10.65;;;6.20;;
8319;SDS011;4197;42.130;24.746;2023-09-19T02:48:13;17.55;;;6.07;;
8319;SDS011;4197;42.130;24.746;2023-09-19T02:50:43;7.50;;;6.23;;
8319;SDS011;4197;42.130;24.746;2023-09-19T02:53:12;7.97;;;5.85;;
8319;SDS011;4197;42.130;24.746;2023-09-19T02:55:41;7.85;;;5.45;;
8319;SDS011;4197;42.130;24.746;2023-09-19T02:58:09;8.73;;;5.95;;
8319;SDS011;4197;42.130;24.746;2023-09-19T03:00:38;9.20;;;5.73;;
8319;SDS011;4197;42.130;24.746;2023-09-19T03:03:08;10.13;;;6.20;;
8319;SDS011;4197;42.130;24.746;2023-09-19T03:05:38;8.87;;;5.17;;
8319;SDS011;4197;42.130;24.746;2023-09-19T03:08:08;8.10;;;6.40;;
8319;SDS011;4197;42.130;24.746;2023-09-19T03:10:36;6.43;;;5.38;;
8319;SDS011;4197;42.130;24.746;2023-09-19T03:13:04;9.75;;;5.70;;
8319;SDS011;4197;42.130;24.746;2023-09-19T03:15:36;6.90;;;5.43;;
8319;SDS011;4197;42.130;24.746;2023-09-19T03:18:05;7.90;;;6.45;;
8319;SDS011;4197;42.130;24.746;2023-09-19T03:20:33;7.82;;;5.45;;
8319;SDS011;4197;42.130;24.746;2023-09-19T03:23:02;9.83;;;5.53;;
8319;SDS011;4197;42.130;24.746;2023-09-19T03:25:34;9.32;;;6.30;;
8319;SDS011;4197;42.130;24.746;2023-09-19T03:28:04;8.07;;;6.00;;
8319;SDS011;4197;42.130;24.746;2023-09-19T03:30:33;9.70;;;5.70;;
8319;SDS011;4197;42.130;24.746;2023-09-19T03:33:01;7.17;;;5.40;;
8319;SDS011;4197;42.130;24.746;2023-09-19T03:35:31;8.38;;;6.10;;
8319;SDS011;4197;42.130;24.746;2023-09-19T03:37:59;8.10;;;5.73;;
8319;SDS011;4197;42.130;24.746;2023-09-19T03:40:27;10.40;;;6.80;;
8319;SDS011;4197;42.130;24.746;2023-09-19T03:42:58;12.63;;;7.03;;
8319;SDS011;4197;42.130;24.746;2023-09-19T03:45:28;13.00;;;5.97;;
8319;SDS011;4197;42.130;24.746;2023-09-19T03:47:56;15.67;;;6.53;;
8319;SDS011;4197;42.130;24.746;2023-09-19T03:50:24;12.85;;;7.00;;
8319;SDS011;4197;42.130;24.746;2023-09-19T03:52:55;13.63;;;6.43;;
8319;SDS011;4197;42.130;24.746;2023-09-19T03:55:24;15.67;;;7.30;;
8319;SDS011;4197;42.130;24.746;2023-09-19T03:57:53;13.53;;;6.47;;
8319;SDS011;4197;42.130;24.746;2023-09-19T04:00:22;12.27;;;6.40;;
8319;SDS011;4197;42.130;24.746;2023-09-19T04:02:53;16.02;;;7.43;;
8319;SDS011;4197;42.130;24.746;2023-09-19T04:05:23;15.83;;;7.63;;
8319;SDS011;4197;42.130;24.746;2023-09-19T04:07:53;20.27;;;7.13;;
8319;SDS011;4197;42.130;24.746;2023-09-19T04:10:21;12.97;;;6.47;;
8319;SDS011;4197;42.130;24.746;2023-09-19T04:12:50;12.93;;;6.83;;
8319;SDS011;4197;42.130;24.746;2023-09-19T04:15:19;11.00;;;6.30;;
8319;SDS011;4197;42.130;24.746;2023-09-19T04:17:51;26.93;;;9.10;;
8319;SDS011;4197;42.130;24.746;2023-09-19T04:20:19;47.33;;;8.83;;
8319;SDS011;4197;42.130;24.746;2023-09-19T04:22:49;30.40;;;7.63;;
8319;SDS011;4197;42.130;24.746;2023-09-19T04:25:18;20.90;;;7.50;;
8319;SDS011;4197;42.130;24.746;2023-09-19T04:27:47;44.88;;;9.55;;
8319;SDS011;4197;42.130;24.746;2023-09-19T04:30:15;28.90;;;8.38;;
8319;SDS011;4197;42.130;24.746;2023-09-19T04:32:43;24.87;;;10.13;;
8319;SDS011;4197;42.130;24.746;2023-09-19T04:35:19;34.73;;;9.90;;
8319;SDS011;4197;42.130;24.746;2023-09-19T04:37:47;27.43;;;10.37;;
8319;SDS011;4197;42.130;24.746;2023-09-19T04:40:16;35.67;;;8.90;;
8319;SDS011;4197;42.130;24.746;2023-09-19T04:42:45;41.40;;;8.32;;
8319;SDS011;4197;42.130;24.746;2023-09-19T04:45:22;27.80;;;8.37;;
8319;SDS011;4197;42.130;24.746;2023-09-19T04:47:50;18.87;;;7.83;;
8319;SDS011;4197;42.130;24.746;2023-09-19T04:50:21;23.10;;;7.28;;
8319;SDS011;4197;42.130;24.746;2023-09-19T04:52:57;22.80;;;8.38;;
8319;SDS011;4197;42.130;24.746;2023-09-19T04:55:27;21.45;;;7.30;;
8319;SDS011;4197;42.130;24.746;2023-09-19T04:57:57;28.07;;;7.53;;
8319;SDS011;4197;42.130;24.746;2023-09-19T05:00:25;17.83;;;7.77;;
8319;SDS011;4197;42.130;24.746;2023-09-19T05:02:57;40.77;;;10.60;;
8319;SDS011;4197;42.130;24.746;2023-09-19T05:05:27;31.23;;;8.90;;
8319;SDS011;4197;42.130;24.746;2023-09-19T05:07:56;19.40;;;7.23;;
8319;SDS011;4197;42.130;24.746;2023-09-19T05:10:31;21.05;;;8.45;;
8319;SDS011;4197;42.130;24.746;2023-09-19T05:13:00;12.60;;;7.07;;
8319;SDS011;4197;42.130;24.746;2023-09-19T05:15:29;13.10;;;6.70;;
8319;SDS011;4197;42.130;24.746;2023-09-19T05:17:57;12.10;;;6.10;;
8319;SDS011;4197;42.130;24.746;2023-09-19T05:20:26;8.35;;;5.85;;
8319;SDS011;4197;42.130;24.746;2023-09-19T05:22:59;11.47;;;5.90;;
8319;SDS011;4197;42.130;24.746;2023-09-19T05:25:35;13.57;;;6.30;;
8319;SDS011;4197;42.130;24.746;2023-09-19T05:28:05;10.48;;;6.13;;
8319;SDS011;4197;42.130;24.746;2023-09-19T05:30:34;12.75;;;5.70;;
8319;SDS011;4197;42.130;24.746;2023-09-19T05:33:05;10.43;;;6.95;;
8319;SDS011;4197;42.130;24.746;2023-09-19T05:35:35;12.77;;;6.32;;
8319;SDS011;4197;42.130;24.746;2023-09-19T05:38:06;16.45;;;6.88;;
8319;SDS011;4197;42.130;24.746;2023-09-19T05:40:35;11.27;;;6.22;;
8319;SDS011;4197;42.130;24.746;2023-09-19T05:43:05;9.10;;;5.95;;
8319;SDS011;4197;42.130;24.746;2023-09-19T05:45:33;15.40;;;6.00;;
8319;SDS011;4197;42.130;24.746;2023-09-19T05:48:07;9.20;;;5.72;;
8319;SDS011;4197;42.130;24.746;2023-09-19T05:50:37;12.70;;;5.78;;
8319;SDS011;4197;42.130;24.746;2023-09-19T05:53:06;11.82;;;6.45;;
8319;SDS011;4197;42.130;24.746;2023-09-19T05:55:34;10.50;;;6.30;;
8319;SDS011;4197;42.130;24.746;2023-09-19T05:58:03;9.45;;;6.07;;
8319;SDS011;4197;42.130;24.746;2023-09-19T06:00:31;15.00;;;6.07;;
8319;SDS011;4197;42.130;24.746;2023-09-19T06:03:02;8.10;;;5.15;;
8319;SDS011;4197;42.130;24.746;2023-09-19T06:05:30;10.65;;;6.28;;
8319;SDS011;4197;42.130;24.746;2023-09-19T06:08:00;7.90;;;6.07;;
8319;SDS011;4197;42.130;24.746;2023-09-19T06:10:34;12.10;;;5.70;;
8319;SDS011;4197;42.130;24.746;2023-09-19T06:13:03;9.75;;;5.97;;
8319;SDS011;4197;42.130;24.746;2023-09-19T06:15:32;9.93;;;6.13;;
8319;SDS011;4197;42.130;24.746;2023-09-19T06:18:02;8.35;;;5.93;;
8319;SDS011;4197;42.130;24.746;2023-09-19T06:20:32;8.35;;;5.80;;
8319;SDS011;4197;42.130;24.746;2023-09-19T06:23:02;8.70;;;6.25;;
8319;SDS011;4197;42.130;24.746;2023-09-19T06:25:31;9.05;;;6.07;;
8319;SDS011;4197;42.130;24.746;2023-09-19T06:27:59;13.80;;;6.38;;
8319;SDS011;4197;42.130;24.746;2023-09-19T06:30:31;8.02;;;5.93;;
8319;SDS011;4197;42.130;24.746;2023-09-19T06:33:00;11.75;;;5.85;;
8319;SDS011;4197;42.130;24.746;2023-09-19T06:35:31;8.15;;;5.78;;
8319;SDS011;4197;42.130;24.746;2023-09-19T06:38:03;21.75;;;6.25;;
8319;SDS011;4197;42.130;24.746;2023-09-19T06:40:33;12.27;;;6.88;;
8319;SDS011;4197;42.130;24.746;2023-09-19T06:43:02;19.67;;;7.25;;
8319;SDS011;4197;42.130;24.746;2023-09-19T06:45:32;17.08;;;6.32;;
8319;SDS011;4197;42.130;24.746;2023-09-19T06:48:00;14.98;;;6.95;;
8319;SDS011;4197;42.130;24.746;2023-09-19T06:50:29;13.50;;;5.88;;
8319;SDS011;4197;42.130;24.746;2023-09-19T06:52:59;8.93;;;5.63;;
8319;SDS011;4197;42.130;24.746;2023-09-19T06:55:30;10.93;;;5.53;;
8319;SDS011;4197;42.130;24.746;2023-09-19T06:57:59;11.48;;;5.75;;
8319;SDS011;4197;42.130;24.746;2023-09-19T07:00:27;7.15;;;5.47;;
8319;SDS011;4197;42.130;24.746;2023-09-19T07:02:58;12.68;;;5.95;;
8319;SDS011;4197;42.130;24.746;2023-09-19T07:05:31;9.05;;;5.40;;
8319;SDS011;4197;42.130;24.746;2023-09-19T07:08:05;13.45;;;6.20;;
8319;SDS011;4197;42.130;24.746;2023-09-19T07:10:36;9.05;;;5.32;;
8319;SDS011;4197;42.130;24.746;2023-09-19T07:13:04;7.65;;;5.68;;
8319;SDS011;4197;42.130;24.746;2023-09-19T07:15:35;9.95;;;5.85;;
8319;SDS011;4197;42.130;24.746;2023-09-19T07:18:06;13.45;;;6.60;;
8319;SDS011;4197;42.130;24.746;2023-09-19T07:20:38;14.65;;;7.63;;
8319;SDS011;4197;42.130;24.746;2023-09-19T07:23:06;21.40;;;9.57;;
8319;SDS011;4197;42.130;24.746;2023-09-19T07:25:36;16.35;;;6.78;;
8319;SDS011;4197;42.130;24.746;2023-09-19T07:28:05;16.10;;;6.55;;
8319;SDS011;4197;42.130;24.746;2023-09-19T07:30:35;16.23;;;6.10;;
8319;SDS011;4197;42.130;24.746;2023-09-19T07:33:05;19.35;;;5.82;;
8319;SDS011;4197;42.130;24.746;2023-09-19T07:35:33;7.80;;;5.78;;
8319;SDS011;4197;42.130;24.746;2023-09-19T07:38:02;10.45;;;6.63;;
8319;SDS011;4197;42.130;24.746;2023-09-19T07:40:30;10.65;;;5.72;;
8319;SDS011;4197;42.130;24.746;2023-09-19T07:43:00;10.40;;;5.72;;
8319;SDS011;4197;42.130;24.746;2023-09-19T07:45:30;8.35;;;5.80;;
8319;SDS011;4197;42.130;24.746;2023-09-19T07:47:59;17.48;;;5.78;;
8319;SDS011;4197;42.130;24.746;2023-09-19T07:50:28;16.55;;;6.82;;
8319;SDS011;4197;42.130;24.746;2023-09-19T07:52:56;13.15;;;7.72;;
8319;SDS011;4197;42.130;24.746;2023-09-19T07:55:25;19.75;;;8.35;;
8319;SDS011;4197;42.130;24.746;2023-09-19T07:57:53;11.70;;;5.57;;
8319;SDS011;4197;42.130;24.746;2023-09-19T08:00:24;14.20;;;5.75;;
8319;SDS011;4197;42.130;24.746;2023-09-19T08:02:52;8.77;;;6.10;;
8319;SDS011;4197;42.130;24.746;2023-09-19T08:05:29;11.85;;;5.88;;
8319;SDS011;4197;42.130;24.746;2023-09-19T08:08:00;14.10;;;5.97;;
8319;SDS011;4197;42.130;24.746;2023-09-19T08:10:28;9.63;;;5.65;;
8319;SDS011;4197;42.130;24.746;2023-09-19T08:13:02;7.90;;;5.65;;
8319;SDS011;4197;42.130;24.746;2023-09-19T08:15:32;13.15;;;5.70;;
8319;SDS011;4197;42.130;24.746;2023-09-19T08:18:03;7.43;;;6.00;;
8319;SDS011;4197;42.130;24.746;2023-09-19T08:20:32;8.98;;;5.32;;
8319;SDS011;4197;42.130;24.746;2023-09-19T08:23:02;13.27;;;6.15;;
8319;SDS011;4197;42.130;24.746;2023-09-19T08:25:30;8.30;;;5.47;;
8319;SDS011;4197;42.130;24.746;2023-09-19T08:27:59;10.60;;;5.50;;
8319;SDS011;4197;42.130;24.746;2023-09-19T08:30:29;13.00;;;5.70;;
8319;SDS011;4197;42.130;24.746;2023-09-19T08:33:01;8.85;;;5.38;;
8319;SDS011;4197;42.130;24.746;2023-09-19T11:46:59;10.93;;;5.10;;
8319;SDS011;4197;42.130;24.746;2023-09-19T11:49:30;7.35;;;4.38;;
8319;SDS011;4197;42.130;24.746;2023-09-19T11:52:00;8.55;;;5.05;;
8319;SDS011;4197;42.130;24.746;2023-09-19T11:54:32;9.77;;;5.55;;
8319;SDS011;4197;42.130;24.746;2023-09-19T11:57:01;14.30;;;5.35;;
8319;SDS011;4197;42.130;24.746;2023-09-19T11:59:29;8.30;;;4.75;;
8319;SDS011;4197;42.130;24.746;2023-09-19T12:02:03;10.50;;;5.45;;
8319;SDS011;4197;42.130;24.746;2023-09-19T12:04:35;5.80;;;4.78;;
8319;SDS011;4197;42.130;24.746;2023-09-19T12:07:06;10.90;;;4.35;;
8319;SDS011;4197;42.130;24.746;2023-09-19T12:09:38;9.20;;;5.28;;
8319;SDS011;4197;42.130;24.746;2023-09-19T12:12:10;8.27;;;5.43;;
8319;SDS011;4197;42.130;24.746;2023-09-19T12:14:47;12.35;;;5.28;;
8319;SDS011;4197;42.130;24.746;2023-09-19T12:17:17;6.85;;;4.68;;
8319;SDS011;4197;42.130;24.746;2023-09-19T12:19:49;8.05;;;5.30;;
8319;SDS011;4197;42.130;24.746;2023-09-19T12:22:19;8.98;;;5.10;;
8319;SDS011;4197;42.130;24.746;2023-09-19T12:24:48;9.20;;;5.07;;
8319;SDS011;4197;42.130;24.746;2023-09-19T12:27:17;9.23;;;5.53;;
8319;SDS011;4197;42.130;24.746;2023-09-19T12:29:46;7.65;;;4.40;;
8319;SDS011;4197;42.130;24.746;2023-09-19T12:32:17;6.43;;;4.65;;
8319;SDS011;4197;42.130;24.746;2023-09-19T12:34:51;7.28;;;4.50;;
8319;SDS011;4197;42.130;24.746;2023-09-19T12:37:21;7.13;;;5.15;;
8319;SDS011;4197;42.130;24.746;2023-09-19T12:40:02;12.52;;;5.20;;
8319;SDS011;4197;42.130;24.746;2023-09-19T12:42:41;7.10;;;4.45;;
8319;SDS011;4197;42.130;24.746;2023-09-19T12:45:11;11.40;;;4.90;;
8319;SDS011;4197;42.130;24.746;2023-09-19T12:51:04;10.43;;;5.43;;
8319;SDS011;4197;42.130;24.746;2023-09-19T12:53:35;7.57;;;4.93;;
8319;SDS011;4197;42.130;24.746;2023-09-19T12:56:08;10.75;;;5.28;;
8319;SDS011;4197;42.130;24.746;2023-09-19T12:58:48;8.05;;;4.65;;
8319;SDS011;4197;42.130;24.746;2023-09-19T13:01:16;8.30;;;4.88;;
8319;SDS011;4197;42.130;24.746;2023-09-19T13:03:45;6.15;;;4.50;;
8319;SDS011;4197;42.130;24.746;2023-09-19T13:06:15;8.80;;;4.45;;
8319;SDS011;4197;42.130;24.746;2023-09-19T13:08:43;10.13;;;4.95;;
8319;SDS011;4197;42.130;24.746;2023-09-19T13:11:20;8.32;;;4.93;;
8319;SDS011;4197;42.130;24.746;2023-09-19T13:13:49;10.65;;;4.55;;
8319;SDS011;4197;42.130;24.746;2023-09-19T13:16:22;12.70;;;5.00;;
8319;SDS011;4197;42.130;24.746;2023-09-19T13:18:52;16.90;;;5.40;;
8319;SDS011;4197;42.130;24.746;2023-09-19T13:21:31;8.95;;;4.32;;
8319;SDS011;4197;42.130;24.746;2023-09-19T13:24:20;16.52;;;4.70;;
8319;SDS011;4197;42.130;24.746;2023-09-19T13:26:52;8.27;;;5.07;;
8319;SDS011;4197;42.130;24.746;2023-09-19T13:29:21;5.28;;;3.75;;
8319;SDS011;4197;42.130;24.746;2023-09-19T13:31:50;7.85;;;4.40;;
8319;SDS011;4197;42.130;24.746;2023-09-19T13:34:21;7.97;;;4.22;;
8319;SDS011;4197;42.130;24.746;2023-09-19T13:36:51;8.43;;;4.55;;
8319;SDS011;4197;42.130;24.746;2023-09-19T13:39:19;8.68;;;4.22;;
8319;SDS011;4197;42.130;24.746;2023-09-19T13:41:51;7.85;;;5.20;;
8319;SDS011;4197;42.130;24.746;2023-09-19T13:44:19;8.90;;;4.80;;
8319;SDS011;4197;42.130;24.746;2023-09-19T13:46:48;12.25;;;4.65;;
8319;SDS011;4197;42.130;24.746;2023-09-19T13:49:18;13.02;;;4.75;;
8319;SDS011;4197;42.130;24.746;2023-09-19T13:51:48;8.85;;;4.72;;
8319;SDS011;4197;42.130;24.746;2023-09-19T13:54:18;18.83;;;5.38;;
8319;SDS011;4197;42.130;24.746;2023-09-19T13:56:47;21.33;;;6.15;;
8319;SDS011;4197;42.130;24.746;2023-09-19T13:59:15;18.63;;;5.05;;
8319;SDS011;4197;42.130;24.746;2023-09-19T14:01:44;10.55;;;4.90;;
8319;SDS011;4197;42.130;24.746;2023-09-19T14:04:12;10.40;;;4.95;;
8319;SDS011;4197;42.130;24.746;2023-09-19T14:06:42;18.27;;;5.90;;
8319;SDS011;4197;42.130;24.746;2023-09-19T14:09:12;11.00;;;5.25;;
8319;SDS011;4197;42.130;24.746;2023-09-19T14:11:44;12.27;;;5.30;;
8319;SDS011;4197;42.130;24.746;2023-09-19T14:14:13;9.38;;;5.50;;
8319;SDS011;4197;42.130;24.746;2023-09-19T14:16:42;24.95;;;6.32;;
8319;SDS011;4197;42.130;24.746;2023-09-19T14:19:10;13.73;;;5.63;;
8319;SDS011;4197;42.130;24.746;2023-09-19T14:21:40;11.75;;;5.63;;
8319;SDS011;4197;42.130;24.746;2023-09-19T14:24:09;13.82;;;5.05;;
8319;SDS011;4197;42.130;24.746;2023-09-19T14:26:38;9.93;;;5.47;;
8319;SDS011;4197;42.130;24.746;2023-09-19T14:29:08;9.75;;;4.53;;
8319;SDS011;4197;42.130;24.746;2023-09-19T14:31:38;7.82;;;4.82;;
8319;SDS011;4197;42.130;24.746;2023-09-19T14:34:08;28.50;;;6.47;;
8319;SDS011;4197;42.130;24.746;2023-09-19T14:36:37;15.50;;;6.03;;
8319;SDS011;4197;42.130;24.746;2023-09-19T14:39:06;10.50;;;5.75;;
8319;SDS011;4197;42.130;24.746;2023-09-19T14:41:34;8.93;;;5.13;;
8319;SDS011;4197;42.130;24.746;2023-09-19T14:44:03;15.32;;;5.90;;
8319;SDS011;4197;42.130;24.746;2023-09-19T14:46:35;37.50;;;7.97;;
8319;SDS011;4197;42.130;24.746;2023-09-19T14:49:04;25.90;;;6.40;;
8319;SDS011;4197;42.130;24.746;2023-09-19T14:51:33;28.27;;;6.07;;
8319;SDS011;4197;42.130;24.746;2023-09-19T14:54:02;32.45;;;6.20;;
8319;SDS011;4197;42.130;24.746;2023-09-19T14:56:31;15.07;;;5.70;;
8319;SDS011;4197;42.130;24.746;2023-09-19T14:58:59;17.17;;;5.40;;
8319;SDS011;4197;42.130;24.746;2023-09-19T15:01:27;8.68;;;4.85;;
8319;SDS011;4197;42.130;24.746;2023-09-19T15:03:57;7.30;;;4.25;;
8319;SDS011;4197;42.130;24.746;2023-09-19T15:06:28;9.93;;;5.07;;
8319;SDS011;4197;42.130;24.746;2023-09-19T15:08:56;11.40;;;6.28;;
8319;SDS011;4197;42.130;24.746;2023-09-19T15:11:24;12.63;;;5.35;;
8319;SDS011;4197;42.130;24.746;2023-09-19T15:13:54;18.92;;;5.78;;
8319;SDS011;4197;42.130;24.746;2023-09-19T15:16:23;13.63;;;5.20;;
8319;SDS011;4197;42.130;24.746;2023-09-19T15:18:51;20.95;;;6.35;;
8319;SDS011;4197;42.130;24.746;2023-09-19T15:21:23;14.38;;;5.90;;
8319;SDS011;4197;42.130;24.746;2023-09-19T15:23:51;22.52;;;5.75;;
8319;SDS011;4197;42.130;24.746;2023-09-19T15:26:19;9.77;;;5.40;;
8319;SDS011;4197;42.130;24.746;2023-09-19T15:28:49;13.60;;;5.72;;
8319;SDS011;4197;42.130;24.746;2023-09-19T15:31:17;16.30;;;5.32;;
8319;SDS011;4197;42.130;24.746;2023-09-19T15:33:46;11.73;;;5.03;;
8319;SDS011;4197;42.130;24.746;2023-09-19T15:36:14;13.00;;;4.90;;
8319;SDS011;4197;42.130;24.746;2023-09-19T15:38:57;14.48;;;5.68;;
8319;SDS011;4197;42.130;24.746;2023-09-19T15:41:27;17.77;;;6.13;;
8319;SDS011;4197;42.130;24.746;2023-09-19T15:43:57;13.57;;;5.30;;
8319;SDS011;4197;42.130;24.746;2023-09-19T15:46:28;11.98;;;5.40;;
8319;SDS011;4197;42.130;24.746;2023-09-19T15:48:57;18.10;;;4.55;;
8319;SDS011;4197;42.130;24.746;2023-09-19T15:51:27;14.05;;;5.22;;
8319;SDS011;4197;42.130;24.746;2023-09-19T15:53:57;20.73;;;6.68;;
8319;SDS011;4197;42.130;24.746;2023-09-19T15:56:26;13.50;;;5.47;;
8319;SDS011;4197;42.130;24.746;2023-09-19T15:58:55;9.65;;;4.72;;
8319;SDS011;4197;42.130;24.746;2023-09-19T16:01:23;11.65;;;4.82;;
8319;SDS011;4197;42.130;24.746;2023-09-19T16:03:52;10.40;;;5.10;;
8319;SDS011;4197;42.130;24.746;2023-09-19T16:06:23;15.15;;;5.43;;
8319;SDS011;4197;42.130;24.746;2023-09-19T16:08:53;12.25;;;5.60;;
8319;SDS011;4197;42.130;24.746;2023-09-19T16:11:27;15.35;;;6.00;;
8319;SDS011;4197;42.130;24.746;2023-09-19T16:13:55;14.30;;;6.57;;
8319;SDS011;4197;42.130;24.746;2023-09-19T16:16:25;14.88;;;6.68;;
8319;SDS011;4197;42.130;24.746;2023-09-19T16:18:57;18.23;;;6.40;;
8319;SDS011;4197;42.130;24.746;2023-09-19T16:21:28;19.85;;;7.57;;
8319;SDS011;4197;42.130;24.746;2023-09-19T16:23:58;18.90;;;7.03;;
8319;SDS011;4197;42.130;24.746;2023-09-19T16:26:28;17.85;;;7.03;;
8319;SDS011;4197;42.130;24.746;2023-09-19T16:28:57;19.48;;;7.28;;
8319;SDS011;4197;42.130;24.746;2023-09-19T16:31:28;36.08;;;9.00;;
8319;SDS011;4197;42.130;24.746;2023-09-19T16:33:58;29.65;;;8.98;;
8319;SDS011;4197;42.130;24.746;2023-09-19T16:36:26;24.77;;;8.82;;
8319;SDS011;4197;42.130;24.746;2023-09-19T16:38:55;34.83;;;12.90;;
8319;SDS011;4197;42.130;24.746;2023-09-19T16:41:24;29.20;;;13.50;;
8319;SDS011;4197;42.130;24.746;2023-09-19T16:43:53;42.40;;;14.63;;
8319;SDS011;4197;42.130;24.746;2023-09-19T16:46:22;46.25;;;16.35;;
8319;SDS011;4197;42.130;24.746;2023-09-19T16:48:50;44.22;;;14.95;;
8319;SDS011;4197;42.130;24.746;2023-09-19T16:51:30;36.45;;;15.00;;
8319;SDS011;4197;42.130;24.746;2023-09-19T16:53:58;35.55;;;15.50;;
8319;SDS011;4197;42.130;24.746;2023-09-19T16:56:28;45.38;;;15.68;;
8319;SDS011;4197;42.130;24.746;2023-09-19T16:59:01;37.45;;;17.58;;
8319;SDS011;4197;42.130;24.746;2023-09-19T17:01:31;34.47;;;19.15;;
8319;SDS011;4197;42.130;24.746;2023-09-19T17:04:00;49.80;;;21.38;;
8319;SDS011;4197;42.130;24.746;2023-09-19T17:06:29;40.63;;;15.93;;
8319;SDS011;4197;42.130;24.746;2023-09-19T17:08:58;38.30;;;17.30;;
8319;SDS011;4197;42.130;24.746;2023-09-19T17:11:26;33.30;;;15.30;;
8319;SDS011;4197;42.130;24.746;2023-09-19T17:13:54;40.50;;;20.63;;
8319;SDS011;4197;42.130;24.746;2023-09-19T17:16:25;40.65;;;20.77;;
8319;SDS011;4197;42.130;24.746;2023-09-19T17:18:56;48.65;;;22.77;;
8319;SDS011;4197;42.130;24.746;2023-09-19T17:21:25;35.33;;;16.58;;
8319;SDS011;4197;42.130;24.746;2023-09-19T17:23:54;34.88;;;15.35;;
8319;SDS011;4197;42.130;24.746;2023-09-19T17:26:25;36.35;;;13.30;;
8319;SDS011;4197;42.130;24.746;2023-09-19T17:28:55;38.40;;;14.70;;
8319;SDS011;4197;42.130;24.746;2023-09-19T17:31:25;30.25;;;13.27;;
8319;SDS011;4197;42.130;24.746;2023-09-19T17:33:55;27.13;;;12.80;;
8319;SDS011;4197;42.130;24.746;2023-09-19T17:36:24;27.55;;;11.70;;
8319;SDS011;4197;42.130;24.746;2023-09-19T17:38:54;32.92;;;13.70;;
8319;SDS011;4197;42.130;24.746;2023-09-19T17:41:24;30.08;;;14.50;;
8319;SDS011;4197;42.130;24.746;2023-09-19T17:43:54;36.13;;;15.50;;
8319;SDS011;4197;42.130;24.746;2023-09-19T17:46:24;36.95;;;19.02;;
8319;SDS011;4197;42.130;24.746;2023-09-19T17:48:55;34.50;;;15.80;;
8319;SDS011;4197;42.130;24.746;2023-09-19T17:51:25;28.40;;;15.68;;
8319;SDS011;4197;42.130;24.746;2023-09-19T17:53:54;24.75;;;12.90;;
8319;SDS011;4197;42.130;24.746;2023-09-19T17:56:26;18.10;;;10.73;;
8319;SDS011;4197;42.130;24.746;2023-09-19T17:58:55;24.08;;;10.23;;
8319;SDS011;4197;42.130;24.746;2023-09-19T18:01:27;19.40;;;10.05;;
8319;SDS011;4197;42.130;24.746;2023-09-19T18:03:58;29.80;;;12.23;;
8319;SDS011;4197;42.130;24.746;2023-09-19T18:06:29;16.35;;;8.57;;
8319;SDS011;4197;42.130;24.746;2023-09-19T18:09:00;15.85;;;9.38;;
8319;SDS011;4197;42.130;24.746;2023-09-19T18:11:34;24.13;;;12.23;;
8319;SDS011;4197;42.130;24.746;2023-09-19T18:14:03;20.20;;;10.82;;
8319;SDS011;4197;42.130;24.746;2023-09-19T18:16:32;19.65;;;10.98;;
8319;SDS011;4197;42.130;24.746;2023-09-19T18:19:01;22.02;;;14.05;;
8319;SDS011;4197;42.130;24.746;2023-09-19T18:21:32;36.08;;;16.15;;
8319;SDS011;4197;42.130;24.746;2023-09-19T18:24:00;37.38;;;17.85;;